Time;durP1;ratioP1;P1;durP2;ratioP2;P2;SDS_P1;SDS_P2;PMS_P1;PMS_P2;Temp;Humidity;BMP_temperature;BMP_pressure;BME280_temperature;BME280_humidity;BME280_pressure;Samples;Min_cycle;Max_cycle;Signal;HPM_P1;HPM_P2
2021/06/20 00:01:23;;;;;;;12.48;11.20;;;;;;;;;;5094151;28;20047;-75
2021/06/20 00:03:49;;;;;;;12.38;11.07;;;;;;;;;;5093791;28;20016;-76
2021/06/20 00:06:36;;;;;;;12.75;11.55;;;;;;;;;;5093204;28;20020;-76
2021/06/20 00:09:05;;;;;;;15.65;10.60;;;;;;;;;;5078799;28;20032;-76
2021/06/20 00:11:31;;;;;;;12.65;10.90;;;;;;;;;;5094045;28;20020;-76
2021/06/20 00:13:57;;;;;;;13.00;11.80;;;;;;;;;;5093333;28;20410;-76
2021/06/20 00:16:24;;;;;;;12.07;10.65;;;;;;;;;;5093757;28;20063;-76
2021/06/20 00:18:50;;;;;;;14.50;11.52;;;;;;;;;;5093430;28;20028;-77
2021/06/20 00:21:16;;;;;;;13.38;11.32;;;;;;;;;;5094066;28;20030;-76
2021/06/20 00:23:42;;;;;;;12.00;10.90;;;;;;;;;;5093717;28;20027;-77
2021/06/20 00:26:08;;;;;;;11.77;10.18;;;;;;;;;;5093258;28;20553;-77
2021/06/20 00:28:34;;;;;;;11.88;10.73;;;;;;;;;;5093678;28;20481;-76
2021/06/20 00:31:01;;;;;;;12.07;10.88;;;;;;;;;;5093178;28;20032;-77
2021/06/20 00:33:27;;;;;;;11.05;10.15;;;;;;;;;;5093299;28;20484;-77
2021/06/20 00:35:53;;;;;;;11.75;10.63;;;;;;;;;;5093540;28;20105;-77
2021/06/20 00:38:19;;;;;;;12.00;10.90;;;;;;;;;;5093687;28;20031;-77
2021/06/20 00:40:45;;;;;;;12.13;11.02;;;;;;;;;;5092947;28;20483;-77
2021/06/20 00:43:11;;;;;;;12.18;11.18;;;;;;;;;;5093363;28;20070;-76
2021/06/20 00:45:37;;;;;;;13.23;10.93;;;;;;;;;;5093302;28;20027;-77
2021/06/20 00:48:03;;;;;;;12.02;10.88;;;;;;;;;;5093375;28;20431;-77
2021/06/20 00:50:29;;;;;;;14.60;10.90;;;;;;;;;;5093251;28;20182;-77
2021/06/20 00:52:56;;;;;;;12.13;10.90;;;;;;;;;;5093172;28;20125;-77
2021/06/20 00:55:22;;;;;;;18.67;10.85;;;;;;;;;;5093464;28;20020;-77
2021/06/20 00:57:49;;;;;;;12.98;11.77;;;;;;;;;;5093504;28;20374;-77
2021/06/20 01:00:15;;;;;;;12.27;11.20;;;;;;;;;;5092951;28;20024;-76
2021/06/20 01:02:44;;;;;;;11.50;10.50;;;;;;;;;;5092940;28;20028;-77
2021/06/20 01:05:11;;;;;;;15.57;11.48;;;;;;;;;;5093669;28;20030;-77
2021/06/20 01:07:37;;;;;;;11.75;10.40;;;;;;;;;;5093328;28;20085;-77
2021/06/20 01:10:04;;;;;;;12.00;10.48;;;;;;;;;;5093644;28;20434;-77
2021/06/20 01:12:30;;;;;;;12.85;11.25;;;;;;;;;;5092904;28;20017;-77
2021/06/20 01:14:56;;;;;;;12.90;11.50;;;;;;;;;;5092748;28;20070;-77
2021/06/20 01:17:22;;;;;;;12.77;10.82;;;;;;;;;;5095761;28;20452;-77
2021/06/20 01:19:48;;;;;;;10.27;9.32;;;;;;;;;;5097654;28;20026;-77
2021/06/20 01:22:19;;;;;;;11.15;9.93;;;;;;;;;;5096413;28;20058;-77
2021/06/20 01:24:45;;;;;;;12.25;11.23;;;;;;;;;;5096612;28;20064;-79
2021/06/20 01:27:11;;;;;;;11.85;10.82;;;;;;;;;;5096404;28;20031;-77
2021/06/20 01:29:45;;;;;;;11.60;10.48;;;;;;;;;;5096745;28;20016;-77
2021/06/20 01:32:12;;;;;;;12.77;11.50;;;;;;;;;;5096681;28;20111;-76
2021/06/20 01:34:38;;;;;;;11.65;10.45;;;;;;;;;;5096622;28;20358;-77
2021/06/20 01:37:08;;;;;;;16.08;10.90;;;;;;;;;;5096397;28;20050;-77
2021/06/20 01:39:34;;;;;;;13.60;11.48;;;;;;;;;;5096926;28;20028;-76
2021/06/20 01:42:00;;;;;;;11.13;10.20;;;;;;;;;;5096693;28;20031;-77
2021/06/20 01:44:26;;;;;;;12.65;11.32;;;;;;;;;;5096089;28;20031;-77
2021/06/20 01:46:52;;;;;;;11.82;10.63;;;;;;;;;;5096058;28;20040;-74
2021/06/20 01:49:18;;;;;;;11.20;10.20;;;;;;;;;;5096733;28;20026;-76
2021/06/20 01:51:45;;;;;;;15.52;11.05;;;;;;;;;;5096660;28;20035;-74
2021/06/20 01:54:11;;;;;;;11.23;10.13;;;;;;;;;;5096219;28;20024;-74
2021/06/20 01:56:37;;;;;;;12.07;10.88;;;;;;;;;;5096227;28;20098;-75
2021/06/20 01:59:03;;;;;;;12.45;11.15;;;;;;;;;;5095710;28;20542;-75
2021/06/20 02:01:30;;;;;;;12.40;11.25;;;;;;;;;;5096048;28;20028;-76
2021/06/20 02:03:56;;;;;;;12.70;11.55;;;;;;;;;;5096350;28;20059;-74
2021/06/20 02:06:22;;;;;;;13.10;10.75;;;;;;;;;;5096284;28;20059;-75
2021/06/20 02:08:48;;;;;;;11.48;10.38;;;;;;;;;;5095569;28;20591;-76
2021/06/20 02:11:14;;;;;;;12.48;11.07;;;;;;;;;;5095692;28;20039;-74
2021/06/20 02:13:40;;;;;;;13.45;12.15;;;;;;;;;;5095968;28;20036;-75
2021/06/20 02:16:07;;;;;;;12.90;11.00;;;;;;;;;;5095291;28;20497;-74
2021/06/20 02:18:33;;;;;;;13.07;11.80;;;;;;;;;;5095831;28;20024;-75
2021/06/20 02:20:59;;;;;;;12.07;10.98;;;;;;;;;;5095428;28;20377;-75
2021/06/20 02:23:25;;;;;;;11.70;10.60;;;;;;;;;;5095722;28;20027;-76
2021/06/20 02:25:51;;;;;;;12.07;11.00;;;;;;;;;;5095696;28;20507;-75
2021/06/20 02:28:17;;;;;;;11.30;10.20;;;;;;;;;;5094538;28;20501;-75
2021/06/20 02:30:43;;;;;;;18.52;11.95;;;;;;;;;;5095141;28;20020;-74
2021/06/20 02:33:10;;;;;;;10.80;9.70;;;;;;;;;;5095321;28;20114;-75
2021/06/20 02:35:36;;;;;;;13.82;11.00;;;;;;;;;;5095460;28;20115;-74
2021/06/20 02:38:02;;;;;;;10.40;9.52;;;;;;;;;;5095511;28;20024;-74
2021/06/20 02:40:28;;;;;;;10.57;9.55;;;;;;;;;;5095153;28;20034;-76
2021/06/20 02:42:54;;;;;;;12.45;11.27;;;;;;;;;;5094791;28;20028;-75
2021/06/20 02:45:21;;;;;;;11.85;10.63;;;;;;;;;;5095275;28;20448;-74
2021/06/20 02:47:47;;;;;;;10.88;9.88;;;;;;;;;;5095643;28;20036;-75
2021/06/20 02:50:15;;;;;;;14.82;10.82;;;;;;;;;;5094882;28;20059;-76
2021/06/20 02:52:41;;;;;;;12.70;11.25;;;;;;;;;;5095068;28;20031;-76
2021/06/20 02:55:07;;;;;;;12.18;11.13;;;;;;;;;;5094757;28;20046;-76
2021/06/20 02:57:33;;;;;;;11.02;9.93;;;;;;;;;;5095051;28;20038;-75
2021/06/20 03:00:02;;;;;;;10.73;9.63;;;;;;;;;;5094473;28;20024;-75
2021/06/20 03:02:28;;;;;;;11.25;10.30;;;;;;;;;;5094753;28;20031;-76
2021/06/20 03:04:55;;;;;;;11.10;10.10;;;;;;;;;;5094842;28;20027;-76
2021/06/20 03:07:21;;;;;;;13.10;11.70;;;;;;;;;;5095187;28;20374;-75
2021/06/20 03:09:47;;;;;;;11.25;10.25;;;;;;;;;;5094793;28;20021;-75
2021/06/20 03:12:13;;;;;;;11.55;10.45;;;;;;;;;;5094719;28;20020;-75
2021/06/20 03:14:39;;;;;;;11.32;10.32;;;;;;;;;;5094598;28;20378;-75
2021/06/20 03:17:05;;;;;;;10.65;9.75;;;;;;;;;;5094421;28;20035;-75
2021/06/20 03:19:32;;;;;;;13.73;10.85;;;;;;;;;;5094972;28;20031;-75
2021/06/20 03:22:01;;;;;;;11.38;10.30;;;;;;;;;;5094345;28;20028;-76
2021/06/20 03:24:28;;;;;;;11.65;10.63;;;;;;;;;;5094519;28;20370;-74
2021/06/20 03:26:54;;;;;;;10.55;9.60;;;;;;;;;;5094089;28;20024;-76
2021/06/20 03:29:20;;;;;;;12.75;11.55;;;;;;;;;;5094342;28;20039;-76
2021/06/20 03:31:46;;;;;;;11.13;10.23;;;;;;;;;;5094393;28;20080;-76
2021/06/20 03:34:12;;;;;;;15.25;10.40;;;;;;;;;;5094561;28;20024;-76
2021/06/20 03:36:38;;;;;;;12.57;10.93;;;;;;;;;;5094434;28;20453;-74
2021/06/20 03:39:04;;;;;;;11.00;10.00;;;;;;;;;;5093693;28;20024;-76
2021/06/20 03:41:30;;;;;;;11.38;9.30;;;;;;;;;;5093727;28;20020;-76
2021/06/20 03:43:57;;;;;;;11.80;10.88;;;;;;;;;;5100626;28;20024;-75
2021/06/20 03:46:23;;;;;;;12.25;11.07;;;;;;;;;;5114159;28;20418;-76
2021/06/20 03:48:49;;;;;;;11.38;10.35;;;;;;;;;;5113853;28;20130;-76
2021/06/20 03:51:15;;;;;;;11.60;10.40;;;;;;;;;;5114060;28;20100;-75
2021/06/20 03:53:41;;;;;;;12.07;11.05;;;;;;;;;;5114334;28;20076;-75
2021/06/20 03:56:07;;;;;;;12.45;10.45;;;;;;;;;;5114393;28;20023;-75
2021/06/20 03:58:33;;;;;;;11.75;10.60;;;;;;;;;;5114019;28;20078;-76
2021/06/20 04:01:00;;;;;;;15.20;11.73;;;;;;;;;;5113916;28;20035;-76
2021/06/20 04:03:26;;;;;;;11.98;10.80;;;;;;;;;;5114353;28;20092;-76
2021/06/20 04:05:52;;;;;;;11.57;10.57;;;;;;;;;;5114479;28;20020;-76
2021/06/20 04:08:18;;;;;;;10.68;9.57;;;;;;;;;;5113862;28;20047;-76
2021/06/20 04:10:44;;;;;;;13.30;11.10;;;;;;;;;;5113873;28;20062;-76
2021/06/20 04:13:10;;;;;;;10.73;9.73;;;;;;;;;;5113618;28;20481;-76
2021/06/20 04:15:36;;;;;;;11.77;10.55;;;;;;;;;;5114212;28;20038;-75
2021/06/20 04:18:02;;;;;;;15.35;12.32;;;;;;;;;;5114378;28;20019;-75
2021/06/20 04:20:28;;;;;;;12.50;11.30;;;;;;;;;;5113944;28;20024;-76
2021/06/20 04:22:55;;;;;;;12.35;11.07;;;;;;;;;;5113795;28;20524;-76
2021/06/20 04:25:21;;;;;;;11.65;10.75;;;;;;;;;;5113705;28;20024;-76
2021/06/20 04:27:48;;;;;;;13.75;12.23;;;;;;;;;;5113445;28;20057;-75
2021/06/20 04:30:14;;;;;;;13.65;12.43;;;;;;;;;;5113953;28;20107;-75
2021/06/20 04:32:41;;;;;;;10.40;9.60;;;;;;;;;;5114098;28;20505;-75
2021/06/20 04:35:07;;;;;;;12.57;11.27;;;;;;;;;;5113535;28;20540;-76
2021/06/20 04:37:33;;;;;;;11.60;10.60;;;;;;;;;;5113906;28;20032;-77
2021/06/20 04:39:59;;;;;;;12.23;11.23;;;;;;;;;;5113869;28;20342;-76
2021/06/20 04:42:33;;;;;;;13.80;11.02;;;;;;;;;;5113384;28;20028;-77
2021/06/20 04:44:59;;;;;;;12.00;11.00;;;;;;;;;;5113322;28;20026;-77
2021/06/20 04:47:27;;;;;;;14.00;11.77;;;;;;;;;;5113561;28;20472;-75
2021/06/20 04:49:53;;;;;;;12.40;11.02;;;;;;;;;;5111353;28;20074;-74
2021/06/20 04:52:19;;;;;;;13.35;12.23;;;;;;;;;;5105847;28;20020;-75
2021/06/20 04:54:52;;;;;;;13.00;11.90;;;;;;;;;;5096319;28;20036;-78
2021/06/20 04:57:21;;;;;;;14.73;13.43;;;;;;;;;;5097238;28;20359;-74
2021/06/20 04:59:47;;;;;;;14.25;12.80;;;;;;;;;;5097797;28;20385;-73
2021/06/20 05:02:13;;;;;;;16.45;13.63;;;;;;;;;;5097790;28;20035;-71
2021/06/20 05:04:40;;;;;;;12.98;11.88;;;;;;;;;;5096515;28;20040;-74
2021/06/20 05:07:06;;;;;;;14.70;13.30;;;;;;;;;;5096731;28;20032;-75
2021/06/20 05:09:33;;;;;;;12.40;11.40;;;;;;;;;;5097505;28;20443;-75
2021/06/20 05:11:59;;;;;;;16.05;14.45;;;;;;;;;;5097739;28;20056;-76
2021/06/20 05:14:25;;;;;;;14.23;12.07;;;;;;;;;;5096873;28;20392;-77
2021/06/20 05:16:51;;;;;;;13.55;12.23;;;;;;;;;;5097963;28;20040;-77
2021/06/20 05:19:17;;;;;;;12.07;10.98;;;;;;;;;;5097064;28;20075;-76
2021/06/20 05:21:43;;;;;;;14.80;13.25;;;;;;;;;;5097487;28;20458;-76
2021/06/20 05:24:09;;;;;;;14.68;13.13;;;;;;;;;;5096958;28;20028;-77
2021/06/20 05:26:35;;;;;;;12.45;11.40;;;;;;;;;;5095913;28;20039;-74
2021/06/20 05:29:01;;;;;;;12.00;11.00;;;;;;;;;;5096418;28;20404;-78
2021/06/20 05:31:28;;;;;;;13.40;11.98;;;;;;;;;;5097360;28;20020;-74
2021/06/20 05:33:54;;;;;;;14.68;13.32;;;;;;;;;;5096870;28;20108;-77
2021/06/20 05:36:20;;;;;;;12.30;11.27;;;;;;;;;;5096086;28;20461;-78
2021/06/20 05:38:46;;;;;;;12.80;11.60;;;;;;;;;;5096433;28;20028;-76
2021/06/20 05:41:12;;;;;;;13.45;12.23;;;;;;;;;;5097017;28;20129;-75
2021/06/20 05:43:39;;;;;;;15.00;12.00;;;;;;;;;;5097279;28;20084;-76
2021/06/20 05:46:05;;;;;;;14.15;12.10;;;;;;;;;;5096104;28;20030;-77
2021/06/20 05:48:31;;;;;;;12.98;11.82;;;;;;;;;;5096818;28;20044;-76
2021/06/20 05:50:57;;;;;;;11.73;10.73;;;;;;;;;;5096577;28;20051;-74
2021/06/20 05:53:23;;;;;;;14.00;11.82;;;;;;;;;;5096379;28;20024;-74
2021/06/20 05:55:49;;;;;;;10.93;9.82;;;;;;;;;;5095660;28;20024;-72
2021/06/20 05:58:15;;;;;;;11.32;10.05;;;;;;;;;;5096459;28;20110;-76
2021/06/20 06:00:42;;;;;;;16.83;11.40;;;;;;;;;;5096210;28;20020;-73
2021/06/20 06:03:08;;;;;;;10.52;9.63;;;;;;;;;;5094702;28;20063;-74
2021/06/20 06:05:34;;;;;;;11.77;10.32;;;;;;;;;;5094814;28;20024;-73
2021/06/20 06:08:00;;;;;;;17.65;11.45;;;;;;;;;;5095882;28;20549;-75
2021/06/20 06:10:27;;;;;;;14.40;9.75;;;;;;;;;;5097072;28;20107;-74
2021/06/20 06:12:53;;;;;;;22.85;10.25;;;;;;;;;;5095940;28;20535;-73
2021/06/20 06:15:19;;;;;;;11.98;9.65;;;;;;;;;;5094441;28;20032;-77
2021/06/20 06:17:45;;;;;;;11.07;10.15;;;;;;;;;;5096294;28;20032;-77
2021/06/20 06:20:12;;;;;;;12.80;10.90;;;;;;;;;;5099495;28;20024;-73
2021/06/20 06:22:38;;;;;;;13.50;10.70;;;;;;;;;;5114721;28;20377;-75
2021/06/20 06:25:05;;;;;;;9.68;8.70;;;;;;;;;;5114239;28;20157;-76
2021/06/20 06:27:31;;;;;;;11.60;9.18;;;;;;;;;;5112107;28;20115;-78
2021/06/20 06:29:57;;;;;;;10.48;9.57;;;;;;;;;;5115751;28;20020;-76
2021/06/20 06:32:23;;;;;;;10.68;7.90;;;;;;;;;;5108070;28;20035;-77
2021/06/20 06:34:49;;;;;;;9.10;8.25;;;;;;;;;;5101568;28;20116;-75
2021/06/20 06:37:15;;;;;;;10.75;9.65;;;;;;;;;;5115683;28;20431;-74
2021/06/20 06:39:41;;;;;;;11.90;9.50;;;;;;;;;;5116148;28;20024;-77
2021/06/20 06:42:08;;;;;;;9.82;8.93;;;;;;;;;;5110918;28;20392;-75
2021/06/20 06:44:34;;;;;;;10.88;9.85;;;;;;;;;;5095909;28;20026;-74
2021/06/20 06:47:00;;;;;;;13.32;8.95;;;;;;;;;;5095254;28;20055;-75
2021/06/20 06:49:26;;;;;;;11.48;9.25;;;;;;;;;;5094331;28;20097;-77
2021/06/20 06:51:52;;;;;;;17.92;7.95;;;;;;;;;;5094210;28;20365;-76
2021/06/20 06:54:18;;;;;;;10.43;8.43;;;;;;;;;;5094513;28;20020;-78
2021/06/20 06:56:44;;;;;;;16.88;8.88;;;;;;;;;;5094926;28;20039;-80
2021/06/20 06:59:11;;;;;;;10.95;9.00;;;;;;;;;;5095778;28;20062;-82
2021/06/20 07:01:37;;;;;;;35.67;11.88;;;;;;;;;;5095485;28;20397;-81
2021/06/20 07:04:03;;;;;;;12.00;9.23;;;;;;;;;;5095057;28;20020;-80
2021/06/20 07:06:29;;;;;;;17.38;10.90;;;;;;;;;;5094598;28;20024;-81
2021/06/20 07:08:55;;;;;;;13.98;10.80;;;;;;;;;;5094516;28;20044;-82
2021/06/20 07:11:21;;;;;;;20.98;10.57;;;;;;;;;;5095274;28;20020;-82
2021/06/20 07:13:47;;;;;;;25.45;9.82;;;;;;;;;;5094198;28;20115;-82
2021/06/20 07:16:13;;;;;;;12.52;11.23;;;;;;;;;;5095053;28;20024;-78
2021/06/20 07:18:39;;;;;;;36.05;10.82;;;;;;;;;;5095120;28;20028;-81
2021/06/20 07:21:06;;;;;;;12.88;10.20;;;;;;;;;;5094329;28;20038;-80
2021/06/20 07:23:32;;;;;;;11.45;9.48;;;;;;;;;;5094117;28;20556;-82
2021/06/20 07:25:58;;;;;;;14.55;10.38;;;;;;;;;;5095020;28;20418;-80
2021/06/20 07:28:25;;;;;;;14.02;8.45;;;;;;;;;;5094618;28;20182;-81
2021/06/20 07:30:51;;;;;;;12.40;9.40;;;;;;;;;;5094236;28;20055;-81
2021/06/20 07:33:17;;;;;;;12.10;8.98;;;;;;;;;;5094445;28;20077;-81
2021/06/20 07:35:47;;;;;;;11.27;10.20;;;;;;;;;;5094999;28;20028;-81
2021/06/20 07:38:13;;;;;;;12.65;9.50;;;;;;;;;;5095062;28;20504;-81
2021/06/20 07:40:39;;;;;;;14.60;8.32;;;;;;;;;;5094213;28;20112;-81
2021/06/20 07:43:05;;;;;;;9.90;8.73;;;;;;;;;;5094386;28;20024;-81
2021/06/20 07:45:32;;;;;;;9.68;8.77;;;;;;;;;;5094143;28;20351;-82
2021/06/20 07:47:58;;;;;;;9.65;8.75;;;;;;;;;;5094435;28;20024;-81
2021/06/20 07:50:24;;;;;;;10.93;8.48;;;;;;;;;;5093700;28;20121;-82
2021/06/20 07:52:51;;;;;;;9.93;8.82;;;;;;;;;;5093950;28;20107;-81
2021/06/20 07:55:17;;;;;;;8.18;7.10;;;;;;;;;;5094239;28;20024;-75
2021/06/20 07:57:43;;;;;;;8.80;7.82;;;;;;;;;;5092676;28;20028;-77
2021/06/20 08:00:09;;;;;;;8.15;7.35;;;;;;;;;;5093820;28;20057;-78
2021/06/20 08:02:36;;;;;;;8.85;7.95;;;;;;;;;;5093822;28;20028;-77
2021/06/20 08:05:03;;;;;;;9.30;8.40;;;;;;;;;;5095411;28;20539;-85
2021/06/20 08:07:29;;;;;;;11.88;8.35;;;;;;;;;;5093769;28;20039;-82
2021/06/20 08:09:56;;;;;;;9.63;8.70;;;;;;;;;;5093722;28;20024;-81
2021/06/20 08:12:23;;;;;;;9.63;8.65;;;;;;;;;;5093531;28;20027;-85
2021/06/20 08:14:50;;;;;;;13.52;7.80;;;;;;;;;;5094101;28;20024;-84
2021/06/20 08:17:16;;;;;;;10.40;7.75;;;;;;;;;;5094281;28;20035;-81
2021/06/20 08:19:42;;;;;;;11.52;8.20;;;;;;;;;;5092821;28;20096;-82
2021/06/20 08:22:08;;;;;;;8.93;7.90;;;;;;;;;;5093305;28;20024;-82
2021/06/20 08:24:35;;;;;;;8.95;7.80;;;;;;;;;;5092784;28;20196;-79
2021/06/20 08:27:01;;;;;;;10.98;9.30;;;;;;;;;;5091959;28;20032;-79
2021/06/20 08:29:27;;;;;;;9.68;8.10;;;;;;;;;;5093328;28;20024;-78
2021/06/20 08:31:53;;;;;;;10.43;7.80;;;;;;;;;;5093355;28;20020;-74
2021/06/20 08:34:19;;;;;;;8.85;7.97;;;;;;;;;;5092577;28;20423;-76
2021/06/20 08:36:47;;;;;;;8.85;7.68;;;;;;;;;;5093231;28;20370;-78
2021/06/20 08:39:13;;;;;;;11.98;8.00;;;;;;;;;;5093287;28;20016;-75
2021/06/20 08:41:40;;;;;;;18.55;12.40;;;;;;;;;;5093046;28;20024;-77
2021/06/20 08:44:24;;;;;;;40.22;13.65;;;;;;;;;;5091751;28;20020;-79
2021/06/20 08:46:50;;;;;;;32.38;18.67;;;;;;;;;;5092507;28;20115;-75
2021/06/20 08:49:16;;;;;;;30.55;14.23;;;;;;;;;;5092774;28;20040;-75
2021/06/20 08:51:44;;;;;;;23.52;14.55;;;;;;;;;;5093311;28;20024;-76
2021/06/20 08:54:11;;;;;;;26.50;16.02;;;;;;;;;;5093552;28;20026;-77
2021/06/20 08:56:37;;;;;;;26.25;16.38;;;;;;;;;;5093136;28;20118;-76
2021/06/20 08:59:05;;;;;;;30.30;16.15;;;;;;;;;;5093009;28;20035;-80
2021/06/20 09:01:32;;;;;;;25.92;14.30;;;;;;;;;;5093089;28;20020;-80
2021/06/20 09:03:58;;;;;;;18.35;12.75;;;;;;;;;;5093132;28;20032;-79
2021/06/20 09:06:24;;;;;;;18.35;12.35;;;;;;;;;;5093224;28;20024;-84
2021/06/20 09:08:52;;;;;;;20.60;12.73;;;;;;;;;;5095395;28;20036;-75
2021/06/20 09:11:39;;;;;;;21.88;12.40;;;;;;;;;;5093458;28;20067;-76
2021/06/20 09:14:25;;;;;;;16.05;13.02;;;;;;;;;;5078032;28;20032;-76
2021/06/20 09:16:52;;;;;;;17.05;12.18;;;;;;;;;;5078117;28;20051;-80
2021/06/20 09:19:18;;;;;;;17.30;11.02;;;;;;;;;;5093435;28;20020;-79
2021/06/20 09:21:52;;;;;;;14.02;10.30;;;;;;;;;;5092135;28;20027;-77
2021/06/20 09:24:19;;;;;;;20.38;9.88;;;;;;;;;;5093393;28;20407;-85
2021/06/20 09:26:45;;;;;;;16.80;11.43;;;;;;;;;;5092510;28;20037;-79
2021/06/20 09:29:11;;;;;;;13.07;11.15;;;;;;;;;;5095947;28;20020;-80
2021/06/20 09:31:53;;;;;;;15.75;11.05;;;;;;;;;;5102606;28;20049;-80
2021/06/20 09:34:19;;;;;;;18.13;12.27;;;;;;;;;;5112815;28;20023;-79
2021/06/20 09:36:46;;;;;;;15.18;12.63;;;;;;;;;;5112966;28;20640;-77
2021/06/20 09:39:20;;;;;;;18.42;12.77;;;;;;;;;;5116256;28;20023;-79
2021/06/20 09:42:06;;;;;;;19.83;12.98;;;;;;;;;;5117499;28;20031;-82
2021/06/20 09:44:36;;;;;;;26.02;12.13;;;;;;;;;;5102082;28;20104;-84
2021/06/20 09:47:02;;;;;;;16.67;13.48;;;;;;;;;;5116458;28;20027;-74
2021/06/20 09:49:28;;;;;;;21.45;12.85;;;;;;;;;;5116884;28;20059;-80
2021/06/20 09:51:55;;;;;;;19.02;12.80;;;;;;;;;;5116751;28;20381;-78
2021/06/20 09:54:36;;;;;;;18.33;13.98;;;;;;;;;;5117073;28;20028;-76
2021/06/20 09:57:03;;;;;;;23.20;13.52;;;;;;;;;;5116123;28;20479;-75
2021/06/20 09:59:30;;;;;;;15.55;12.88;;;;;;;;;;5116055;28;20034;-77
2021/06/20 10:02:06;;;;;;;25.92;12.75;;;;;;;;;;5116285;28;20464;-75
2021/06/20 10:04:33;;;;;;;14.93;12.45;;;;;;;;;;5116001;28;20490;-75
2021/06/20 10:06:59;;;;;;;15.95;11.27;;;;;;;;;;5114052;28;20032;-78
2021/06/20 10:09:25;;;;;;;15.25;11.20;;;;;;;;;;5114739;28;20067;-76
2021/06/20 10:11:51;;;;;;;17.40;12.07;;;;;;;;;;5115775;28;20127;-77
2021/06/20 10:14:17;;;;;;;14.00;11.32;;;;;;;;;;5115537;28;20077;-77
2021/06/20 10:16:47;;;;;;;16.95;11.15;;;;;;;;;;5115276;28;20350;-73
2021/06/20 10:19:15;;;;;;;18.92;11.15;;;;;;;;;;5109069;28;20755;-75
2021/06/20 10:21:41;;;;;;;12.95;10.68;;;;;;;;;;5102689;28;20020;-74
2021/06/20 10:24:12;;;;;;;12.85;10.38;;;;;;;;;;5105675;28;20024;-76
2021/06/20 10:26:40;;;;;;;15.52;10.40;;;;;;;;;;5103054;28;20532;-77
2021/06/20 10:29:21;;;;;;;19.63;10.88;;;;;;;;;;5105758;28;20177;-77
2021/06/20 10:31:48;;;;;;;11.68;9.23;;;;;;;;;;5115080;28;20026;-77
2021/06/20 10:34:17;;;;;;;14.60;10.35;;;;;;;;;;5115582;28;20027;-76
2021/06/20 10:36:45;;;;;;;10.73;9.48;;;;;;;;;;5115234;28;20024;-76
2021/06/20 10:39:12;;;;;;;9.88;8.88;;;;;;;;;;5115370;28;20016;-76
2021/06/20 10:41:38;;;;;;;11.15;9.02;;;;;;;;;;5114775;28;20020;-77
2021/06/20 10:44:04;;;;;;;13.20;8.95;;;;;;;;;;5115075;28;20377;-76
2021/06/20 10:46:31;;;;;;;15.18;9.38;;;;;;;;;;5115141;28;20461;-76
2021/06/20 10:48:58;;;;;;;12.10;8.48;;;;;;;;;;5113989;28;20036;-76
2021/06/20 10:51:25;;;;;;;9.98;8.32;;;;;;;;;;5115121;28;20060;-76
2021/06/20 10:53:51;;;;;;;14.07;9.50;;;;;;;;;;5114735;28;20023;-76
2021/06/20 10:56:21;;;;;;;10.55;8.50;;;;;;;;;;5113796;28;20407;-76
2021/06/20 10:58:48;;;;;;;17.55;9.13;;;;;;;;;;5114196;28;20480;-77
2021/06/20 11:01:16;;;;;;;12.00;8.88;;;;;;;;;;5116082;28;20046;-79
2021/06/20 11:03:42;;;;;;;18.67;8.80;;;;;;;;;;5115437;28;20043;-82
2021/06/20 11:06:14;;;;;;;14.27;9.02;;;;;;;;;;5114147;28;20055;-77
2021/06/20 11:08:40;;;;;;;;;;;;;;;;;;5115068;28;20073;-76
2021/06/20 11:11:12;;;;;;;8.45;7.60;;;;;;;;;;5114354;28;19994;-75
2021/06/20 11:13:38;;;;;;;11.10;8.52;;;;;;;;;;5115514;28;20148;-79
2021/06/20 11:16:08;;;;;;;8.95;7.63;;;;;;;;;;5114383;28;20038;-79
2021/06/20 11:18:35;;;;;;;12.13;8.52;;;;;;;;;;5114693;28;20587;-77
2021/06/20 11:21:01;;;;;;;10.77;7.70;;;;;;;;;;5105538;28;20035;-78
2021/06/20 11:23:30;;;;;;;10.30;7.20;;;;;;;;;;5109627;28;20038;-77
2021/06/20 11:25:56;;;;;;;14.07;8.13;;;;;;;;;;5107092;28;20055;-77
2021/06/20 11:28:22;;;;;;;9.55;8.45;;;;;;;;;;5102869;28;20032;-77
2021/06/20 11:30:49;;;;;;;8.45;7.65;;;;;;;;;;5103641;28;20032;-76
2021/06/20 11:33:23;;;;;;;7.55;6.93;;;;;;;;;;5102054;28;20034;-77
2021/06/20 11:35:50;;;;;;;9.63;7.70;;;;;;;;;;5101875;28;20027;-78
2021/06/20 11:38:16;;;;;;;10.60;8.25;;;;;;;;;;5101560;28;20059;-78
2021/06/20 11:40:42;;;;;;;8.18;7.43;;;;;;;;;;5102926;28;20377;-78
2021/06/20 11:43:08;;;;;;;8.43;7.63;;;;;;;;;;5103338;28;20016;-79
2021/06/20 11:45:37;;;;;;;10.20;8.38;;;;;;;;;;5101792;28;20020;-78
2021/06/20 11:48:03;;;;;;;9.30;8.20;;;;;;;;;;5103095;28;20092;-76
2021/06/20 11:50:31;;;;;;;10.98;8.90;;;;;;;;;;5102981;28;20044;-78
2021/06/20 11:52:58;;;;;;;9.48;7.38;;;;;;;;;;5101398;28;20024;-78
2021/06/20 11:55:25;;;;;;;8.90;7.95;;;;;;;;;;5102543;28;20028;-76
2021/06/20 11:57:51;;;;;;;7.88;6.60;;;;;;;;;;5102785;28;20103;-76
2021/06/20 12:00:19;;;;;;;8.35;7.55;;;;;;;;;;5100667;28;20123;-76
2021/06/20 12:02:47;;;;;;;8.25;6.80;;;;;;;;;;5101973;28;20038;-76
2021/06/20 12:05:14;;;;;;;9.32;7.70;;;;;;;;;;5103604;28;20016;-75
2021/06/20 12:07:40;;;;;;;9.07;8.27;;;;;;;;;;5103160;28;20062;-75
2021/06/20 12:10:07;;;;;;;8.18;7.45;;;;;;;;;;5103990;28;20019;-76
2021/06/20 12:12:33;;;;;;;9.45;7.68;;;;;;;;;;5101124;28;20023;-76
2021/06/20 12:15:00;;;;;;;8.10;7.38;;;;;;;;;;5102404;28;20019;-78
2021/06/20 12:17:28;;;;;;;13.38;8.95;;;;;;;;;;5102941;28;20031;-77
2021/06/20 12:19:54;;;;;;;9.57;8.73;;;;;;;;;;5100773;28;20373;-75
2021/06/20 12:22:21;;;;;;;10.20;9.00;;;;;;;;;;5102315;28;20022;-76
2021/06/20 12:25:02;;;;;;;11.63;7.05;;;;;;;;;;5102483;28;20063;-75
2021/06/20 12:27:30;;;;;;;10.18;7.05;;;;;;;;;;5102327;28;20032;-77
2021/06/20 12:29:56;;;;;;;13.20;8.00;;;;;;;;;;5101163;28;20020;-78
2021/06/20 12:32:22;;;;;;;8.55;7.63;;;;;;;;;;5102082;28;20052;-78
2021/06/20 12:34:49;;;;;;;11.60;7.35;;;;;;;;;;5102916;28;20688;-75
2021/06/20 12:37:15;;;;;;;9.13;7.15;;;;;;;;;;5101259;28;20024;-75
2021/06/20 12:39:45;;;;;;;8.35;6.70;;;;;;;;;;5102979;28;20051;-76
2021/06/20 12:42:11;;;;;;;7.75;6.65;;;;;;;;;;5095510;28;20024;-76
2021/06/20 12:44:39;;;;;;;8.88;6.72;;;;;;;;;;5091138;28;20028;-75
2021/06/20 12:47:05;;;;;;;10.98;7.97;;;;;;;;;;5091939;28;20490;-76
2021/06/20 12:49:31;;;;;;;7.50;6.88;;;;;;;;;;5092769;28;20052;-74
2021/06/20 12:52:01;;;;;;;10.35;7.20;;;;;;;;;;5094782;28;20019;-76
2021/06/20 12:54:37;;;;;;;9.90;6.28;;;;;;;;;;5100550;28;20042;-76
2021/06/20 12:57:03;;;;;;;10.25;8.15;;;;;;;;;;5093226;28;20027;-74
2021/06/20 12:59:37;;;;;;;8.27;7.57;;;;;;;;;;5100166;28;20027;-75
2021/06/20 13:02:04;;;;;;;7.70;7.05;;;;;;;;;;5102427;28;20026;-73
2021/06/20 13:04:30;;;;;;;23.02;7.32;;;;;;;;;;5100042;28;20492;-77
2021/06/20 13:06:58;;;;;;;13.63;7.88;;;;;;;;;;5103283;28;20048;-77
2021/06/20 13:09:24;;;;;;;12.02;7.13;;;;;;;;;;5103494;28;20027;-77
2021/06/20 13:11:51;;;;;;;21.55;8.40;;;;;;;;;;5101397;28;20469;-79
2021/06/20 13:14:19;;;;;;;10.07;7.38;;;;;;;;;;5107557;28;20073;-77
2021/06/20 13:16:45;;;;;;;16.20;7.80;;;;;;;;;;5096560;28;20893;-77
2021/06/20 13:19:12;;;;;;;31.63;9.35;;;;;;;;;;5097375;28;20559;-83
2021/06/20 13:21:38;;;;;;;16.98;9.02;;;;;;;;;;5097880;28;20060;-83
2021/06/20 13:24:04;;;;;;;21.17;9.18;;;;;;;;;;5097852;28;20048;-82
2021/06/20 13:26:30;;;;;;;16.80;9.55;;;;;;;;;;5098519;28;20028;-81
2021/06/20 13:28:56;;;;;;;18.25;8.05;;;;;;;;;;5098255;28;20046;-81
2021/06/20 13:31:22;;;;;;;14.40;8.63;;;;;;;;;;5097474;28;20077;-76
2021/06/20 13:33:53;;;;;;;15.10;7.78;;;;;;;;;;5094501;28;20047;-77
2021/06/20 13:36:20;;;;;;;10.43;8.05;;;;;;;;;;5096920;28;20024;-77
2021/06/20 13:38:46;;;;;;;10.18;7.38;;;;;;;;;;5096677;28;20039;-78
2021/06/20 13:41:12;;;;;;;12.23;7.75;;;;;;;;;;5097143;28;20106;-76
2021/06/20 13:43:38;;;;;;;10.75;8.00;;;;;;;;;;5097507;28;20062;-78
2021/06/20 13:46:04;;;;;;;10.93;7.88;;;;;;;;;;5096597;28;20070;-77
2021/06/20 13:48:30;;;;;;;15.07;8.27;;;;;;;;;;5097075;28;20085;-82
2021/06/20 13:50:56;;;;;;;12.38;10.55;;;;;;;;;;5095519;28;20047;-80
2021/06/20 13:53:22;;;;;;;8.98;8.15;;;;;;;;;;5096469;28;20020;-83
2021/06/20 13:55:49;;;;;;;16.13;9.10;;;;;;;;;;5096320;28;20106;-81
2021/06/20 13:58:15;;;;;;;8.75;7.70;;;;;;;;;;5095990;28;20032;-80
2021/06/20 14:00:42;;;;;;;13.43;7.88;;;;;;;;;;5097144;28;20026;-83
2021/06/20 14:03:08;;;;;;;11.05;7.90;;;;;;;;;;5097260;28;20024;-77
2021/06/20 14:05:34;;;;;;;9.35;7.72;;;;;;;;;;5096289;28;20024;-77
2021/06/20 14:08:00;;;;;;;13.27;8.05;;;;;;;;;;5096747;28;20067;-79
2021/06/20 14:10:26;;;;;;;9.35;7.78;;;;;;;;;;5097484;28;20350;-79
2021/06/20 14:12:52;;;;;;;7.88;7.25;;;;;;;;;;5096300;28;20169;-75
2021/06/20 14:15:20;;;;;;;8.77;7.85;;;;;;;;;;5096168;28;20046;-75
2021/06/20 14:17:46;;;;;;;12.60;7.43;;;;;;;;;;5102594;28;20024;-76
2021/06/20 14:20:13;;;;;;;8.45;7.03;;;;;;;;;;5095563;28;20060;-79
2021/06/20 14:22:39;;;;;;;9.60;8.13;;;;;;;;;;5095311;28;20024;-80
2021/06/20 14:25:05;;;;;;;13.45;8.63;;;;;;;;;;5094999;28;20068;-78